KBRO/BRO METAR and TAF weather

Enter ICAO airport designator
Station Type Date Time Source
KBRO METAR 2021/03/08 11:53 UTC NOAA

KBRO 081153Z 07005KT 10SM BKN060 OVC090 18/13 A3031 RMK AO2 SLP261 T01780133 10183 20178 53001 $


Station Type Date Time Source
KBRO Decoded METAR 2021/03/08 11:53 UTC NOAA

BROWNSVILLE/SOUTH PADRE IS, TX, United States (KBRO) 25-54N 97-25W 5M
Mar 08, 2021 - 06:53 AM EST / 2021.03.08 1153 UTC
Wind: from the ENE (070 degrees) at 6 MPH (5 KT):0
Visibility: 10 mile(s):0
Sky conditions: overcast
Temperature: 64.0 F (17.8 C)
Dew Point: 55.9 F (13.3 C)
Relative Humidity: 74%
Pressure (altimeter): 30.31 in. Hg (1026 hPa)
Pressure tendency: 0.00 inches (0.1 hPa) higher than three hours ago
ob: KBRO 081153Z 07005KT 10SM BKN060 OVC090 18/13 A3031 RMK AO2 SLP261 T01780133 10183 20178 53001
cycle: 12

Station Type Date Time Source
KBRO TAF 2021/03/08 12:24 UTC NOAA

TAF KBRO 081121Z 0812/0912 VRB03KT P6SM FEW040 OVC080
FM081500 09008KT P6SM SCT040 BKN080
FM081900 12012KT P6SM BKN035 BKN070
FM090200 10005KT P6SM SCT030 BKN040
FM090800 09004KT P6SM BKN025 OVC040

Example: see airport list